Time;durP1;ratioP1;P1;durP2;ratioP2;P2;SDS_P1;SDS_P2;PMS_P1;PMS_P2;Temp;Humidity;BMP_temperature;BMP_pressure;BME280_temperature;BME280_humidity;BME280_pressure;Samples;Min_cycle;Max_cycle;Signal;HPM_P1;HPM_P2
2023/04/07 00:02:12;;;;;;;10.87;6.67;;;4.50;1.00;;;;;;4898951;29;20197;-93
2023/04/07 00:04:39;;;;;;;10.67;6.10;;;4.60;1.00;;;;;;4899496;29;20241;-93
2023/04/07 00:07:06;;;;;;;9.93;5.70;;;4.60;1.00;;;;;;4899129;29;20212;-92
2023/04/07 00:09:32;;;;;;;9.27;5.83;;;4.70;1.00;;;;;;4899243;29;20240;-92
2023/04/07 00:12:01;;;;;;;12.03;5.67;;;4.70;1.00;;;;;;4899297;29;20209;-93
2023/04/07 00:14:28;;;;;;;8.30;5.77;;;4.60;1.00;;;;;;4899379;29;20198;-92
2023/04/07 00:16:55;;;;;;;9.93;5.90;;;4.70;1.00;;;;;;4898661;29;20233;-91
2023/04/07 00:19:22;;;;;;;9.60;6.27;;;4.60;1.00;;;;;;4898734;29;20210;-93
2023/04/07 00:21:49;;;;;;;12.07;6.20;;;4.60;1.00;;;;;;4899151;29;20213;-92
2023/04/07 00:24:16;;;;;;;9.50;5.73;;;4.60;1.00;;;;;;4898785;29;20679;-92
2023/04/07 00:26:42;;;;;;;9.83;6.17;;;4.50;1.00;;;;;;4896094;29;20194;-93
2023/04/07 00:29:10;;;;;;;9.00;6.10;;;4.60;1.00;;;;;;4880045;29;20206;-92
2023/04/07 00:31:37;;;;;;;10.33;5.70;;;4.50;1.00;;;;;;4891833;29;20204;-93
2023/04/07 00:34:04;;;;;;;8.87;6.10;;;4.50;1.00;;;;;;4898526;29;20206;-93
2023/04/07 00:36:32;;;;;;;9.13;6.30;;;4.60;1.00;;;;;;4899447;29;20202;-93
2023/04/07 00:38:59;;;;;;;11.07;5.70;;;4.60;1.00;;;;;;4898541;29;20209;-92
2023/04/07 00:41:25;;;;;;;9.80;6.17;;;4.60;1.00;;;;;;4898846;29;20225;-92
2023/04/07 00:43:52;;;;;;;11.90;6.60;;;4.60;1.00;;;;;;4898734;29;20655;-93
2023/04/07 00:46:22;;;;;;;10.20;6.03;;;4.60;1.00;;;;;;4889010;29;20205;-93
2023/04/07 00:48:49;;;;;;;10.70;6.10;;;4.60;1.00;;;;;;4895584;29;20277;-92
2023/04/07 00:51:16;;;;;;;10.93;6.40;;;4.60;1.00;;;;;;4898319;29;20715;-92
2023/04/07 00:53:43;;;;;;;9.07;5.90;;;4.60;1.00;;;;;;4898589;29;20221;-92
2023/04/07 00:56:09;;;;;;;10.00;6.03;;;4.60;1.00;;;;;;4901695;29;20202;-91
2023/04/07 00:58:36;;;;;;;8.23;5.77;;;4.60;1.00;;;;;;4902325;29;20213;-92
2023/04/07 01:01:08;;;;;;;9.27;6.23;;;4.60;1.00;;;;;;4887176;29;20191;-92
2023/04/07 01:03:44;;;;;;;9.93;6.07;;;4.60;1.00;;;;;;4883685;29;20187;-92
2023/04/07 01:06:15;;;;;;;9.77;6.23;;;4.60;1.00;;;;;;4896054;29;20249;-92
2023/04/07 01:08:48;;;;;;;10.17;6.30;;;4.60;1.00;;;;;;4900576;29;20206;-93
2023/04/07 01:11:23;;;;;;;9.77;6.50;;;4.60;1.00;;;;;;4883180;29;20245;-93
2023/04/07 01:13:51;;;;;;;10.87;6.60;;;4.60;1.00;;;;;;4886481;29;20647;-93
2023/04/07 01:16:24;;;;;;;13.27;6.60;;;4.60;1.00;;;;;;4901665;29;20240;-93
2023/04/07 01:18:55;;;;;;;10.57;6.83;;;4.70;1.00;;;;;;4902017;29;20202;-93
2023/04/07 01:21:26;;;;;;;10.77;6.47;;;4.70;1.00;;;;;;4901635;29;20253;-92
2023/04/07 01:24:05;;;;;;;10.93;6.90;;;4.60;1.00;;;;;;4901971;29;20191;-93
2023/04/07 01:26:33;;;;;;;11.43;6.47;;;4.70;1.00;;;;;;4886403;29;20678;-93
2023/04/07 01:29:33;;;;;;;9.23;6.63;;;4.70;1.00;;;;;;4901674;29;20199;-92
2023/04/07 01:32:01;;;;;;;12.63;6.50;;;4.70;1.00;;;;;;4844196;29;20197;-92
2023/04/07 01:34:31;;;;;;;11.37;6.73;;;4.80;1.00;;;;;;4843849;29;20200;-92
2023/04/07 01:37:01;;;;;;;11.60;6.67;;;4.80;1.00;;;;;;4843794;29;20580;-91
2023/04/07 01:39:28;;;;;;;11.87;7.07;;;4.80;1.00;;;;;;4844043;29;20223;-93
2023/04/07 01:41:57;;;;;;;8.73;6.40;;;4.80;1.00;;;;;;4843914;29;20239;-92
2023/04/07 01:44:25;;;;;;;12.77;7.60;;;4.80;1.00;;;;;;4841353;29;20207;-92
2023/04/07 01:46:55;;;;;;;15.33;8.03;;;4.80;1.00;;;;;;4825325;29;20205;-93
2023/04/07 01:49:23;;;;;;;12.47;7.17;;;4.80;1.00;;;;;;4842184;29;20865;-92
2023/04/07 01:51:51;;;;;;;12.00;7.50;;;4.80;1.00;;;;;;4843703;29;20231;-92
2023/04/07 01:54:18;;;;;;;16.27;7.80;;;4.80;1.00;;;;;;4844055;29;20609;-91
2023/04/07 01:56:45;;;;;;;13.90;7.63;;;4.80;1.00;;;;;;4843247;29;20196;-92
2023/04/07 01:59:12;;;;;;;13.17;8.27;;;4.80;1.00;;;;;;4843436;29;20218;-93
2023/04/07 02:01:39;;;;;;;14.27;8.00;;;4.80;1.00;;;;;;4843272;29;20680;-93
2023/04/07 02:04:12;;;;;;;16.83;9.60;;;4.80;1.00;;;;;;4843586;29;20208;-93
2023/04/07 02:06:44;;;;;;;17.33;9.90;;;4.80;1.00;;;;;;4845270;29;20192;-92
2023/04/07 02:09:13;;;;;;;21.70;11.33;;;4.90;1.00;;;;;;4890684;29;20218;-92
2023/04/07 02:11:42;;;;;;;24.23;12.43;;;4.90;1.00;;;;;;4900878;29;20694;-93
2023/04/07 02:14:09;;;;;;;21.63;11.80;;;4.90;1.00;;;;;;4900487;29;20206;-93
2023/04/07 02:16:37;;;;;;;17.73;9.33;;;4.90;1.00;;;;;;4897486;29;20736;-92
2023/04/07 02:19:05;;;;;;;14.60;8.50;;;4.90;1.00;;;;;;4900610;29;20556;-93
2023/04/07 02:21:35;;;;;;;13.37;7.83;;;4.90;1.00;;;;;;4900873;29;20265;-93
2023/04/07 02:24:02;;;;;;;14.40;8.70;;;4.90;1.00;;;;;;4900643;29;20197;-92
2023/04/07 02:26:33;;;;;;;11.80;7.87;;;4.90;1.00;;;;;;4900526;29;20571;-92
2023/04/07 02:29:00;;;;;;;9.33;6.67;;;5.00;1.00;;;;;;4881966;29;20195;-93
2023/04/07 02:31:27;;;;;;;11.50;6.40;;;5.00;1.00;;;;;;4899524;29;20723;-93
2023/04/07 02:33:54;;;;;;;10.27;6.37;;;5.00;1.00;;;;;;4900160;29;20206;-93
2023/04/07 02:36:21;;;;;;;10.10;6.43;;;5.00;1.00;;;;;;4900407;29;20209;-92
2023/04/07 02:38:49;;;;;;;10.37;6.90;;;5.00;1.00;;;;;;4900072;29;20198;-93
2023/04/07 02:41:16;;;;;;;11.30;6.53;;;5.00;1.00;;;;;;4899963;29;20711;-93
2023/04/07 02:43:42;;;;;;;11.97;6.60;;;4.90;1.00;;;;;;4900499;29;20213;-92
2023/04/07 02:46:09;;;;;;;10.00;6.40;;;5.00;1.00;;;;;;4900193;29;20190;-93
2023/04/07 02:48:36;;;;;;;13.20;6.80;;;5.00;1.00;;;;;;4900400;29;20207;-93
2023/04/07 02:51:03;;;;;;;10.97;6.43;;;5.00;1.00;;;;;;4899979;29;20230;-93
2023/04/07 02:53:30;;;;;;;9.23;6.00;;;5.00;1.00;;;;;;4899639;29;20575;-93
2023/04/07 02:55:58;;;;;;;9.33;6.23;;;5.00;1.00;;;;;;4899934;29;20663;-93
2023/04/07 02:58:25;;;;;;;10.70;6.23;;;4.90;1.00;;;;;;4885616;29;20285;-92
2023/04/07 03:00:51;;;;;;;9.53;6.03;;;5.00;1.00;;;;;;4881561;29;20206;-93
2023/04/07 03:03:18;;;;;;;11.27;6.43;;;4.90;1.00;;;;;;4891895;29;20208;-92
2023/04/07 03:05:45;;;;;;;9.27;6.40;;;4.90;1.00;;;;;;4899959;29;20194;-94
2023/04/07 03:08:12;;;;;;;13.90;6.50;;;4.90;1.00;;;;;;4899973;29;20202;-92
2023/04/07 03:10:38;;;;;;;11.40;6.07;;;4.90;1.00;;;;;;4898787;29;20222;-93
2023/04/07 03:13:07;;;;;;;10.80;6.37;;;4.90;1.00;;;;;;4899981;29;20198;-92
2023/04/07 03:15:34;;;;;;;8.83;6.10;;;4.90;1.00;;;;;;4899620;29;20266;-93
2023/04/07 03:18:01;;;;;;;8.87;5.90;;;4.90;1.00;;;;;;4899037;29;20238;-93
2023/04/07 03:20:28;;;;;;;10.33;5.87;;;4.90;1.00;;;;;;4899691;29;20225;-92
2023/04/07 03:22:55;;;;;;;8.30;5.97;;;4.90;1.00;;;;;;4899475;29;20656;-93
2023/04/07 03:25:22;;;;;;;10.30;6.20;;;4.90;1.00;;;;;;4899502;29;20202;-93
2023/04/07 03:27:49;;;;;;;13.23;7.27;;;4.90;1.00;;;;;;4899730;29;20213;-93
2023/04/07 03:30:17;;;;;;;8.37;5.87;;;4.90;1.00;;;;;;4899217;29;20205;-94
2023/04/07 03:32:44;;;;;;;10.67;6.60;;;4.90;1.00;;;;;;4899429;29;20208;-93
2023/04/07 03:35:11;;;;;;;9.70;6.20;;;4.90;1.00;;;;;;4899325;29;20609;-93
2023/04/07 03:37:38;;;;;;;9.33;6.40;;;4.90;1.00;;;;;;4881231;29;20209;-93
2023/04/07 03:40:05;;;;;;;9.27;6.57;;;4.90;1.00;;;;;;4880632;29;20206;-93
2023/04/07 03:42:32;;;;;;;11.50;7.10;;;4.90;1.00;;;;;;4880575;29;20198;-93
2023/04/07 03:44:59;;;;;;;10.03;6.37;;;4.90;1.00;;;;;;4880717;29;20209;-94
2023/04/07 03:47:27;;;;;;;10.60;6.27;;;4.90;1.00;;;;;;4898077;29;20275;-93
2023/04/07 03:49:54;;;;;;;10.50;6.30;;;4.90;1.00;;;;;;4899493;29;20216;-94
2023/04/07 03:52:21;;;;;;;11.60;6.20;;;4.90;1.00;;;;;;4899051;29;20305;-96
2023/04/07 03:54:47;;;;;;;11.57;6.20;;;4.90;1.00;;;;;;4899084;29;20579;-93
2023/04/07 03:57:15;;;;;;;13.93;6.33;;;4.90;1.00;;;;;;4899059;29;20200;-94
2023/04/07 03:59:42;;;;;;;12.13;6.50;;;4.90;1.00;;;;;;4898915;29;20204;-94
2023/04/07 04:02:09;;;;;;;12.10;6.50;;;4.90;1.00;;;;;;4898638;29;20198;-93
2023/04/07 04:04:37;;;;;;;10.57;5.97;;;4.90;1.00;;;;;;4899709;29;20203;-92
2023/04/07 04:07:03;;;;;;;9.57;6.30;;;4.90;1.00;;;;;;4898909;29;20195;-92
2023/04/07 04:09:30;;;;;;;8.07;5.73;;;4.90;1.00;;;;;;4899166;29;20638;-92
2023/04/07 04:11:57;;;;;;;9.13;6.00;;;4.90;1.00;;;;;;4898718;29;20218;-92
2023/04/07 04:14:24;;;;;;;9.53;6.47;;;4.90;1.00;;;;;;4898927;29;20275;-93
2023/04/07 04:16:51;;;;;;;10.87;5.97;;;4.90;1.00;;;;;;4899092;29;20236;-93
2023/04/07 04:19:17;;;;;;;7.87;5.80;;;4.90;1.00;;;;;;4899424;29;20686;-92
2023/04/07 04:21:46;;;;;;;10.07;5.77;;;4.90;1.00;;;;;;4899335;29;20208;-92
2023/04/07 04:24:12;;;;;;;10.60;5.60;;;4.90;2.80;;;;;;4898912;29;20217;-93
2023/04/07 04:26:39;;;;;;;8.90;5.20;;;4.90;17.40;;;;;;4899067;29;20207;-92
2023/04/07 04:29:06;;;;;;;9.80;5.47;;;4.80;55.70;;;;;;4899114;29;20202;-94
2023/04/07 04:31:33;;;;;;;10.07;5.73;;;4.80;99.90;;;;;;4902584;29;20780;-92
2023/04/07 04:34:00;;;;;;;9.27;5.57;;;4.80;99.90;;;;;;4895982;29;20210;-92
2023/04/07 04:36:27;;;;;;;9.77;5.90;;;4.80;99.90;;;;;;4893982;29;20242;-93
2023/04/07 04:38:55;;;;;;;8.73;5.93;;;4.80;99.90;;;;;;4902415;29;20203;-91
2023/04/07 04:41:21;;;;;;;11.67;6.00;;;4.80;99.90;;;;;;4902777;29;20195;-93
2023/04/07 04:43:48;;;;;;;9.47;5.77;;;4.80;99.90;;;;;;4902238;29;20281;-93
2023/04/07 04:46:15;;;;;;;10.07;5.93;;;4.80;99.90;;;;;;4902377;29;20201;-92
2023/04/07 04:48:42;;;;;;;8.80;5.63;;;4.80;99.90;;;;;;4902197;29;20202;-93
2023/04/07 04:51:09;;;;;;;8.23;5.20;;;4.80;99.90;;;;;;4902332;29;20218;-92
2023/04/07 04:53:35;;;;;;;8.93;5.57;;;4.80;99.90;;;;;;4883540;29;20206;-92
2023/04/07 04:56:04;;;;;;;9.33;5.60;;;4.80;99.90;;;;;;4885310;29;20203;-91
2023/04/07 04:58:31;;;;;;;7.90;5.30;;;4.80;99.90;;;;;;4901978;29;20220;-92
2023/04/07 05:00:59;;;;;;;7.60;4.80;;;4.70;99.90;;;;;;4902511;29;20201;-92
2023/04/07 05:03:26;;;;;;;11.80;5.77;;;4.70;99.90;;;;;;4901380;29;20285;-93
2023/04/07 05:05:53;;;;;;;8.17;5.23;;;4.70;99.90;;;;;;4901687;29;20218;-92
2023/04/07 05:08:20;;;;;;;13.03;6.07;;;4.60;99.90;;;;;;4901889;29;20210;-92
2023/04/07 05:10:46;;;;;;;8.07;5.87;;;4.60;99.90;;;;;;4901898;29;20202;-92
2023/04/07 05:13:15;;;;;;;8.47;5.50;;;4.60;99.90;;;;;;4901092;29;20199;-93
2023/04/07 05:15:42;;;;;;;8.53;4.83;;;4.50;99.90;;;;;;4901833;29;20198;-92
2023/04/07 05:18:08;;;;;;;7.73;4.93;;;4.50;99.90;;;;;;4901764;29;20229;-91
2023/04/07 05:20:35;;;;;;;9.50;4.97;;;4.50;99.90;;;;;;4901753;29;20202;-92
2023/04/07 05:23:02;;;;;;;7.70;4.57;;;4.50;99.90;;;;;;4901473;29;20776;-92
2023/04/07 05:25:29;;;;;;;8.40;5.50;;;4.50;99.90;;;;;;4901607;29;20202;-93
2023/04/07 05:27:56;;;;;;;8.43;5.30;;;4.50;1.00;;;;;;4901925;29;20202;-93
2023/04/07 05:30:24;;;;;;;9.47;5.37;;;4.50;1.00;;;;;;4901629;29;20206;-93
2023/04/07 05:32:52;;;;;;;7.10;4.67;;;4.50;1.00;;;;;;4901499;29;20254;-92
2023/04/07 05:35:18;;;;;;;8.10;5.20;;;4.50;1.00;;;;;;4901482;29;20204;-92
2023/04/07 05:37:45;;;;;;;9.27;5.60;;;4.50;1.00;;;;;;4901623;29;20206;-92
2023/04/07 05:40:12;;;;;;;8.00;4.53;;;4.50;1.00;;;;;;4901300;29;20205;-92
2023/04/07 05:42:39;;;;;;;8.97;5.37;;;4.50;1.00;;;;;;4901244;29;20213;-93
2023/04/07 05:45:07;;;;;;;9.00;5.40;;;4.50;1.00;;;;;;4901228;29;20206;-92
2023/04/07 05:47:35;;;;;;;7.97;5.10;;;4.50;1.00;;;;;;4901690;29;20205;-93
2023/04/07 05:50:02;;;;;;;7.93;4.70;;;4.60;1.00;;;;;;4900952;29;20210;-94
2023/04/07 05:52:29;;;;;;;7.23;4.70;;;4.60;1.00;;;;;;4901046;29;20218;-92
2023/04/07 05:54:56;;;;;;;8.60;4.80;;;4.60;1.00;;;;;;4900722;29;20202;-93
2023/04/07 05:57:23;;;;;;;7.00;4.87;;;4.60;1.00;;;;;;4901138;29;20214;-93
2023/04/07 05:59:49;;;;;;;7.33;4.20;;;4.60;1.00;;;;;;4901365;29;20206;-93
2023/04/07 06:02:16;;;;;;;7.70;4.60;;;4.70;1.00;;;;;;4901064;29;20205;-92
2023/04/07 06:04:45;;;;;;;8.27;4.17;;;4.80;1.00;;;;;;4901053;29;20210;-93
2023/04/07 06:07:11;;;;;;;5.73;3.83;;;4.90;1.00;;;;;;4900751;29;20217;-92
2023/04/07 06:09:38;;;;;;;8.33;4.40;;;5.00;1.00;;;;;;4901086;29;20225;-93
2023/04/07 06:12:05;;;;;;;5.73;4.30;;;5.10;1.00;;;;;;4900982;29;20240;-93
2023/04/07 06:14:32;;;;;;;6.33;3.83;;;5.10;1.00;;;;;;4901006;29;20565;-92
2023/04/07 06:17:00;;;;;;;7.53;4.40;;;5.10;1.00;;;;;;4900633;29;20231;-93
2023/04/07 06:19:27;;;;;;;6.10;3.60;;;5.10;1.00;;;;;;4900396;29;20202;-94
2023/04/07 06:21:55;;;;;;;6.03;4.30;;;5.10;1.00;;;;;;4900515;29;20199;-93
2023/04/07 06:24:24;;;;;;;7.60;5.27;;;5.10;1.00;;;;;;4900728;29;20202;-92
2023/04/07 06:26:51;;;;;;;7.30;4.80;;;5.20;1.00;;;;;;4900779;29;20283;-92
2023/04/07 06:29:18;;;;;;;6.60;4.20;;;5.20;1.00;;;;;;4900536;29;20212;-93
2023/04/07 06:31:45;;;;;;;8.00;4.20;;;5.20;1.00;;;;;;4900372;29;20234;-93
2023/04/07 06:34:12;;;;;;;7.30;4.23;;;5.20;1.00;;;;;;4900430;29;20209;-93
2023/04/07 06:36:38;;;;;;;7.97;3.83;;;5.10;1.00;;;;;;4900189;29;20655;-93
2023/04/07 06:39:06;;;;;;;7.27;4.43;;;5.10;1.00;;;;;;4900334;29;20198;-93
2023/04/07 06:41:33;;;;;;;5.90;3.93;;;5.00;1.00;;;;;;4900513;29;20210;-92
2023/04/07 06:44:00;;;;;;;4.27;3.60;;;5.10;1.00;;;;;;4893096;29;20206;-93
2023/04/07 06:46:27;;;;;;;6.63;4.17;;;5.10;1.00;;;;;;4896934;29;20194;-93
2023/04/07 06:48:54;;;;;;;5.60;3.60;;;5.20;1.00;;;;;;4900034;29;20241;-93
2023/04/07 06:51:21;;;;;;;5.33;3.23;;;5.20;1.00;;;;;;4900299;29;20258;-92
2023/04/07 06:53:48;;;;;;;6.00;4.10;;;5.20;1.00;;;;;;4899953;29;20202;-92
2023/04/07 06:56:16;;;;;;;5.30;3.30;;;5.20;1.00;;;;;;4899965;29;20250;-93
2023/04/07 06:58:43;;;;;;;6.93;3.63;;;5.20;55.10;;;;;;4881380;29;20286;-93
2023/04/07 07:01:10;;;;;;;5.97;4.37;;;5.20;15.10;;;;;;4881454;29;20210;-93
2023/04/07 07:03:36;;;;;;;6.70;4.10;;;5.20;47.90;;;;;;4887690;29;20203;-92
2023/04/07 07:06:03;;;;;;;3.87;2.97;;;5.20;99.90;;;;;;4887858;29;20205;-93
2023/04/07 07:08:30;;;;;;;6.17;3.93;;;5.20;99.90;;;;;;4899953;29;20296;-93
2023/04/07 07:10:57;;;;;;;8.10;4.03;;;5.10;99.90;;;;;;4899880;29;20202;-92
2023/04/07 07:13:26;;;;;;;7.33;4.60;;;5.10;99.90;;;;;;4899689;29;20233;-92
2023/04/07 07:15:53;;;;;;;7.07;4.33;;;5.10;99.90;;;;;;4899409;29;20210;-94
2023/04/07 07:18:20;;;;;;;6.43;4.50;;;5.10;99.90;;;;;;4899749;29;20220;-92
2023/04/07 07:20:47;;;;;;;6.53;4.23;;;5.10;99.90;;;;;;4899476;29;20198;-92
2023/04/07 07:23:14;;;;;;;6.30;4.03;;;5.20;99.90;;;;;;4899844;29;20679;-95
2023/04/07 07:25:41;;;;;;;8.77;4.53;;;5.20;99.90;;;;;;4899348;29;20210;-92
2023/04/07 07:28:08;;;;;;;8.97;4.80;;;5.20;99.90;;;;;;4899715;29;20210;-92
2023/04/07 07:30:38;;;;;;;7.17;4.47;;;5.20;99.90;;;;;;4899490;29;20197;-94
2023/04/07 07:33:05;;;;;;;8.50;4.37;;;5.10;99.90;;;;;;4899025;29;20680;-93
2023/04/07 07:35:32;;;;;;;7.13;4.43;;;5.10;99.90;;;;;;4899636;29;20217;-93
2023/04/07 07:37:59;;;;;;;6.73;4.77;;;5.10;1.00;;;;;;4899556;29;20270;-94
2023/04/07 07:40:26;;;;;;;6.23;4.40;;;5.20;1.00;;;;;;4899850;29;20198;-95
2023/04/07 07:42:52;;;;;;;5.93;3.60;;;5.20;1.00;;;;;;4899718;29;20198;-94
2023/04/07 07:45:19;;;;;;;5.73;4.00;;;5.20;1.00;;;;;;4899270;29;20299;-93
2023/04/07 07:47:47;;;;;;;7.73;4.37;;;5.30;1.00;;;;;;4899395;29;20202;-93
2023/04/07 07:50:14;;;;;;;7.77;4.03;;;5.30;1.00;;;;;;4899442;29;20198;-94
2023/04/07 07:52:42;;;;;;;6.80;4.00;;;5.30;1.00;;;;;;4883845;29;20253;-94
2023/04/07 07:55:09;;;;;;;6.57;3.87;;;5.30;1.00;;;;;;4880910;29;20234;-94
2023/04/07 07:57:36;;;;;;;5.13;3.60;;;5.30;1.00;;;;;;4894864;29;20209;-95
2023/04/07 08:00:03;;;;;;;7.30;4.53;;;5.30;1.00;;;;;;4899098;29;20202;-96
2023/04/07 08:02:32;;;;;;;7.10;4.40;;;5.20;1.00;;;;;;4892964;29;20187;-93
2023/04/07 08:05:00;;;;;;;5.03;3.47;;;5.30;1.00;;;;;;4882048;29;20203;-94
2023/04/07 08:07:27;;;;;;;6.00;3.80;;;5.40;1.00;;;;;;4884833;29;20207;-94
2023/04/07 08:09:54;;;;;;;6.50;3.90;;;5.40;1.00;;;;;;4897769;29;20203;-93
2023/04/07 08:12:21;;;;;;;6.13;3.83;;;5.50;1.00;;;;;;4902772;29;20225;-93
2023/04/07 08:14:48;;;;;;;6.63;4.13;;;5.50;1.00;;;;;;4902736;29;20190;-92
2023/04/07 08:17:15;;;;;;;5.60;4.20;;;5.50;1.00;;;;;;4902721;29;20278;-93
2023/04/07 08:19:42;;;;;;;6.33;4.13;;;5.60;1.00;;;;;;4902874;29;20194;-93
2023/04/07 08:22:10;;;;;;;7.00;4.30;;;5.70;1.00;;;;;;4903063;29;20198;-92
2023/04/07 08:24:37;;;;;;;5.47;3.70;;;5.80;1.00;;;;;;4902693;29;20697;-93
2023/04/07 08:27:04;;;;;;;7.00;4.70;;;5.90;1.00;;;;;;4902351;29;20204;-93
2023/04/07 08:29:31;;;;;;;7.17;4.03;;;5.90;1.00;;;;;;4902494;29;20691;-93
2023/04/07 08:31:58;;;;;;;5.90;3.83;;;5.90;1.00;;;;;;4902974;29;20197;-93
2023/04/07 08:34:25;;;;;;;5.73;3.73;;;5.90;1.00;;;;;;4902936;29;20202;-93
2023/04/07 08:36:52;;;;;;;5.70;3.47;;;5.80;1.00;;;;;;4902595;29;20271;-93
2023/04/07 08:39:21;;;;;;;6.13;3.50;;;5.80;1.00;;;;;;4902792;29;20205;-93
2023/04/07 08:41:50;;;;;;;6.90;4.33;;;5.80;1.00;;;;;;4902857;29;20249;-95
2023/04/07 08:44:17;;;;;;;8.20;4.50;;;5.80;46.00;;;;;;4902176;29;20694;-94
2023/04/07 08:46:45;;;;;;;5.00;3.73;;;5.80;99.90;;;;;;4902680;29;20207;-93
2023/04/07 08:49:12;;;;;;;7.83;3.87;;;5.80;99.90;;;;;;4901787;29;20289;-92
2023/04/07 08:51:46;;;;;;;6.23;4.47;;;5.80;99.90;;;;;;4902209;29;20198;-94
2023/04/07 08:54:14;;;;;;;6.80;3.90;;;5.90;99.90;;;;;;4887544;29;20221;-94
2023/04/07 08:56:43;;;;;;;5.60;3.37;;;6.00;99.90;;;;;;4902042;29;20211;-93
2023/04/07 08:59:11;;;;;;;6.23;4.57;;;6.00;99.90;;;;;;4902154;29;20201;-93
2023/04/07 09:01:39;;;;;;;4.57;3.00;;;6.00;99.90;;;;;;4887777;29;20199;-92
2023/04/07 09:04:07;;;;;;;9.37;5.43;;;6.00;99.90;;;;;;4902063;29;20246;-92
2023/04/07 09:06:35;;;;;;;6.57;3.70;;;6.00;62.60;;;;;;4901819;29;20202;-91
2023/04/07 09:09:02;;;;;;;5.93;4.13;;;6.00;99.90;;;;;;4902111;29;20577;-90
2023/04/07 09:11:30;;;;;;;8.27;4.27;;;5.90;99.90;;;;;;4902051;29;20240;-90
2023/04/07 09:14:00;;;;;;;7.10;4.70;;;5.90;99.90;;;;;;4901640;29;20233;-90
2023/04/07 09:16:29;;;;;;;8.77;4.67;;;5.80;99.90;;;;;;4901090;29;20246;-91
2023/04/07 09:18:56;;;;;;;7.77;4.77;;;5.80;99.90;;;;;;4900967;29;20210;-90
2023/04/07 09:21:23;;;;;;;7.63;4.93;;;5.90;1.00;;;;;;4901166;29;20212;-90
2023/04/07 09:23:50;;;;;;;7.60;4.13;;;5.90;1.00;;;;;;4900932;29;20209;-89
2023/04/07 09:26:23;;;;;;;6.03;3.70;;;5.90;1.00;;;;;;4900781;29;20203;-90
2023/04/07 09:28:52;;;;;;;7.67;4.40;;;5.90;1.00;;;;;;4898947;29;20266;-90
2023/04/07 09:31:21;;;;;;;7.97;4.70;;;5.90;1.00;;;;;;4900628;29;20293;-89
2023/04/07 09:33:48;;;;;;;7.17;4.20;;;5.90;1.00;;;;;;4896787;29;20689;-90
2023/04/07 09:36:15;;;;;;;7.77;4.67;;;5.90;1.00;;;;;;4890165;29;20200;-90
2023/04/07 09:38:44;;;;;;;9.43;4.90;;;6.00;1.00;;;;;;4900949;29;20208;-89
2023/04/07 09:41:13;;;;;;;8.47;5.13;;;6.10;1.00;;;;;;4900818;29;20210;-90
2023/04/07 09:43:41;;;;;;;9.97;6.13;;;6.20;1.00;;;;;;4900330;29;20204;-90
2023/04/07 09:46:13;;;;;;;9.63;5.87;;;6.30;1.00;;;;;;4900533;29;20204;-90
2023/04/07 09:48:42;;;;;;;10.07;6.40;;;6.40;1.00;;;;;;4893184;29;20655;-90
2023/04/07 09:51:10;;;;;;;7.33;4.13;;;6.60;1.00;;;;;;4881955;29;20257;-91
2023/04/07 09:53:46;;;;;;;5.57;3.87;;;6.70;1.00;;;;;;4884666;29;20743;-91
2023/04/07 09:56:15;;;;;;;6.03;3.30;;;6.70;1.00;;;;;;4900223;29;20688;-90
2023/04/07 09:58:43;;;;;;;9.77;6.33;;;6.60;1.00;;;;;;4900908;29;20260;-89
2023/04/07 10:01:10;;;;;;;9.97;4.83;;;6.60;1.00;;;;;;4900271;29;20235;-90
2023/04/07 10:03:38;;;;;;;9.00;5.30;;;6.70;1.00;;;;;;4900422;29;20211;-90
2023/04/07 10:06:07;;;;;;;9.03;4.47;;;6.70;1.00;;;;;;4900092;29;20687;-90
2023/04/07 10:08:36;;;;;;;7.50;4.57;;;6.70;1.00;;;;;;4899712;29;20664;-90
2023/04/07 10:11:04;;;;;;;9.30;5.47;;;6.70;1.00;;;;;;4899980;29;20733;-90
2023/04/07 10:13:32;;;;;;;6.57;4.77;;;6.80;1.00;;;;;;4900077;29;20227;-90
2023/04/07 10:15:59;;;;;;;8.47;4.70;;;6.80;1.00;;;;;;4899598;29;20208;-89
2023/04/07 10:18:30;;;;;;;8.70;5.20;;;6.80;1.00;;;;;;4899939;29;20207;-90
2023/04/07 10:21:00;;;;;;;8.10;4.93;;;6.90;1.00;;;;;;4899720;29;20208;-90
2023/04/07 10:23:37;;;;;;;9.47;5.60;;;7.00;1.00;;;;;;4900307;29;20289;-90
2023/04/07 10:26:07;;;;;;;9.90;4.70;;;7.00;1.00;;;;;;4881295;29;20625;-90
2023/04/07 10:28:37;;;;;;;8.63;5.20;;;7.10;1.00;;;;;;4898019;29;20201;-90
2023/04/07 10:31:04;;;;;;;9.07;5.63;;;7.10;1.00;;;;;;4900291;29;20199;-91
2023/04/07 10:33:48;;;;;;;10.90;5.50;;;7.10;1.00;;;;;;4899726;29;20221;-90
2023/04/07 10:36:16;;;;;;;8.80;4.57;;;7.10;1.00;;;;;;4899632;29;20199;-90
2023/04/07 10:39:20;;;;;;;10.17;5.67;;;7.10;99.90;;;;;;4899801;29;20206;-90
2023/04/07 10:41:46;;;;;;;9.20;5.43;;;7.00;1.00;;;;;;4899332;29;20200;-90
2023/04/07 10:44:47;;;;;;;10.73;6.10;;;7.10;1.00;;;;;;4899960;29;20313;-89
2023/04/07 10:47:13;;;;;;;9.90;5.20;;;7.10;1.00;;;;;;4881367;29;20293;-90
2023/04/07 10:50:16;;;;;;;9.33;5.00;;;7.10;1.00;;;;;;4891680;29;20754;-90
2023/04/07 10:52:43;;;;;;;9.70;4.90;;;7.00;1.00;;;;;;4881234;29;20323;-93
2023/04/07 10:55:45;;;;;;;9.37;5.70;;;7.10;1.00;;;;;;4891154;29;20239;-91
2023/04/07 10:58:19;;;;;;;8.80;5.03;;;7.10;1.00;;;;;;4823862;29;20199;-91
2023/04/07 11:01:18;;;;;;;8.93;4.93;;;7.10;1.00;;;;;;4824137;29;20215;-93
2023/04/07 11:03:59;;;;;;;8.37;4.70;;;7.20;1.00;;;;;;4824253;29;20214;-92
2023/04/07 11:06:26;;;;;;;9.07;4.70;;;7.20;1.00;;;;;;4824258;29;20244;-95
2023/04/07 11:08:53;;;;;;;8.50;4.63;;;7.20;1.00;;;;;;4823994;29;20281;-93
2023/04/07 11:11:39;;;;;;;10.77;5.33;;;7.20;1.00;;;;;;4824074;29;20205;-95
2023/04/07 11:14:06;;;;;;;9.43;5.13;;;7.20;1.00;;;;;;4824212;29;20757;-92
2023/04/07 11:16:39;;;;;;;8.90;5.30;;;7.20;1.00;;;;;;4823978;29;20242;-93
2023/04/07 11:19:06;;;;;;;9.00;4.53;;;7.10;1.00;;;;;;4824036;29;20203;-92
2023/04/07 11:21:33;;;;;;;6.53;3.70;;;7.10;1.00;;;;;;4823997;29;20274;-92
2023/04/07 11:23:59;;;;;;;8.23;4.50;;;7.10;1.00;;;;;;4823810;29;20674;-93
2023/04/07 11:26:27;;;;;;;8.67;4.97;;;7.00;1.00;;;;;;4823565;29;20201;-92
2023/04/07 11:28:57;;;;;;;8.13;4.93;;;7.00;1.00;;;;;;4838450;29;20659;-94
2023/04/07 11:31:25;;;;;;;10.00;5.73;;;7.00;1.00;;;;;;4890197;29;20288;-94
2023/04/07 11:33:57;;;;;;;9.00;5.00;;;7.00;1.00;;;;;;4899250;29;20214;-94
2023/04/07 11:36:28;;;;;;;8.83;5.00;;;7.00;50.10;;;;;;4896363;29;20203;-94
2023/04/07 11:38:56;;;;;;;9.70;4.83;;;7.10;1.00;;;;;;4889341;29;20204;-94
2023/04/07 11:41:23;;;;;;;10.10;5.70;;;7.10;1.00;;;;;;4886698;29;20241;-94
2023/04/07 11:44:03;;;;;;;8.87;5.80;;;7.20;33.90;;;;;;4898115;29;20240;-93
2023/04/07 11:46:31;;;;;;;8.83;5.83;;;7.20;75.60;;;;;;4880200;29;20194;-94
2023/04/07 11:49:09;;;;;;;7.50;4.63;;;7.40;99.90;;;;;;4885656;29;20197;-94
2023/04/07 11:51:36;;;;;;;7.47;4.53;;;7.50;46.20;;;;;;4890161;29;20205;-93
2023/04/07 11:54:02;;;;;;;8.00;5.13;;;7.70;1.00;;;;;;4898335;29;20229;-94
2023/04/07 11:56:29;;;;;;;10.83;6.33;;;7.90;1.00;;;;;;4898789;29;20208;-93
2023/04/07 11:58:57;;;;;;;8.00;4.57;;;7.90;1.00;;;;;;4898448;29;20296;-94
2023/04/07 12:01:24;;;;;;;6.47;4.77;;;8.00;99.90;;;;;;4898659;29;20250;-94
2023/04/07 12:04:00;;;;;;;7.37;4.40;;;7.90;99.90;;;;;;4890528;29;20205;-94
2023/04/07 12:06:29;;;;;;;6.43;4.40;;;7.80;1.00;;;;;;4898860;29;20198;-94
2023/04/07 12:08:56;;;;;;;6.70;4.70;;;7.80;1.00;;;;;;4888239;29;20206;-94
2023/04/07 12:11:23;;;;;;;7.93;4.87;;;7.90;1.00;;;;;;4895066;29;20206;-93
2023/04/07 12:13:50;;;;;;;6.93;4.50;;;7.90;1.00;;;;;;4898707;29;20218;-93
2023/04/07 12:16:17;;;;;;;6.47;4.57;;;7.90;1.00;;;;;;4886899;29;20244;-91
2023/04/07 12:18:44;;;;;;;7.37;4.60;;;7.90;1.00;;;;;;4898409;29;20242;-91
2023/04/07 12:21:12;;;;;;;5.70;3.83;;;8.00;1.00;;;;;;4891167;29;20208;-91
2023/04/07 12:23:39;;;;;;;7.57;5.23;;;8.10;99.90;;;;;;4898333;29;20208;-92
2023/04/07 12:26:06;;;;;;;7.50;4.80;;;8.20;99.90;;;;;;4891387;29;20612;-91
2023/04/07 12:28:33;;;;;;;7.17;5.37;;;8.20;99.90;;;;;;4898186;29;20217;-90
2023/04/07 12:31:00;;;;;;;6.13;4.03;;;8.30;99.90;;;;;;4897666;29;20209;-92
2023/04/07 12:33:27;;;;;;;7.33;5.10;;;8.50;99.90;;;;;;4894090;29;20222;-92
2023/04/07 12:35:54;;;;;;;4.90;3.60;;;8.50;99.90;;;;;;4889251;29;20211;-91
2023/04/07 12:38:22;;;;;;;5.80;3.83;;;8.50;41.30;;;;;;4896824;29;20215;-91
2023/04/07 12:40:49;;;;;;;4.37;2.77;;;8.50;1.00;;;;;;4881809;29;20207;-92
2023/04/07 12:43:16;;;;;;;4.63;2.63;;;8.40;1.00;;;;;;4897932;29;20198;-91
2023/04/07 12:45:43;;;;;;;5.93;3.70;;;8.20;1.00;;;;;;4897811;29;20698;-91
2023/04/07 12:48:09;;;;;;;6.97;4.13;;;8.20;99.90;;;;;;4898434;29;20304;-91
2023/04/07 12:50:36;;;;;;;7.90;5.07;;;8.10;99.90;;;;;;4899082;29;20216;-92
2023/04/07 12:53:04;;;;;;;8.43;4.43;;;8.10;99.90;;;;;;4901624;29;20205;-92
2023/04/07 12:55:34;;;;;;;7.83;5.17;;;8.00;99.90;;;;;;4901808;29;20202;-92
2023/04/07 12:58:01;;;;;;;11.83;7.03;;;8.00;99.90;;;;;;4902014;29;22476;-92
2023/04/07 13:00:28;;;;;;;9.97;5.20;;;7.90;99.90;;;;;;4901978;29;20636;-91
2023/04/07 13:02:55;;;;;;;7.27;4.80;;;7.90;99.90;;;;;;4901871;29;20194;-91
2023/04/07 13:05:22;;;;;;;7.57;5.20;;;7.90;99.90;;;;;;4901936;29;20206;-91
2023/04/07 13:07:49;;;;;;;9.23;6.00;;;7.90;99.90;;;;;;4902094;29;20229;-91
2023/04/07 13:10:16;;;;;;;8.10;5.73;;;7.90;1.00;;;;;;4902009;29;20204;-92